• Join FlightAware (Why Join?)
  • Login
  • US Flag 
10:09PM EDT


 

Airport Tracker/Info


-or-


 

Live Flight TrackerFlight Track Log ✈ SWA864 ✈ 01-Jun-2013 ✈ KALB - KMDW

Flight Track Log - Related Links

Times and Time Zones

All times are in EDT time to prevent confusion due to time zone crossing. See the SWA864 flight status page for this flight to view local times or setup timezone preferences in your user account.

Time Position Orientation Groundspeed Altitude Reporting Facility
EDT Latitude Longitude Course Direction KTS MPH feet Rate Location/Type
07:27AM 42.7236 -73.8081 283° West 149 171 1,400  Level Boston Center
07:28AM 42.7000 -73.8528 234° Southwest 200 230 3,200 1,560 Climbing Boston Center
07:30AM 42.7450 -73.9300 308° West 249 287 5,000 2,160 Climbing Boston Center
07:31AM 42.8006 -73.9739 330° Northwest 254 292 8,100 3,000 Climbing Boston Center
07:32AM 42.8872 -74.0411 330° Northwest 288 331 11,000 3,120 Climbing Boston Center
07:33AM 42.8870 -74.5720 283° West  Level FlightAware Approximate
07:33AM 42.9822 -74.1117 331° Northwest 334 384 14,400  Level Boston Center
07:34AM 43.0139 -74.2206 292° West 329 379 17,000 2,340 Climbing Boston Center
07:35AM 43.0281 -74.3631 278° West 340 391 19,600 2,460 Climbing Boston Center
07:36AM 43.0397 -74.5394 275° West 372 428 22,500 2,220 Climbing Boston Center
07:37AM 43.0500 -74.6592 277° West 384 442 24,100 1,860 Climbing Boston Center
07:38AM 43.0647 -74.8472 276° West 408 470 26,300 1,860 Climbing Boston Center
07:39AM 43.0758 -75.0069 275° West 425 489 27,900 1,620 Climbing Boston Center
07:40AM 43.0883 -75.1922 275° West 438 504 29,600 1,800 Climbing Boston Center
07:41AM 43.1008 -75.3606 276° West 449 517 31,600 1,800 Climbing Boston Center
07:42AM 43.0858 -75.5278 263° West 449 517 33,300 1,500 Climbing Boston Center
07:43AM 43.0503 -75.6850 253° West 441 507 34,700 1,620 Climbing Boston Center
07:44AM 43.0144 -75.8422 253° West 441 507 36,600 1,560 Climbing Boston Center
07:45AM 42.9783 -75.9992 253° West 435 501 37,900 420 Climbing Boston Center
07:47AM 42.9114 -76.2739 252° West 413 475 38,000  Climbing Cleveland Center
07:48AM 42.8731 -76.4267 251° West 418 481 38,000  Level Cleveland Center
07:49AM 42.8389 -76.5792 253° West 418 481 38,000  Level Cleveland Center
07:50AM 42.7989 -76.7458 252° West 424 488 38,000  Level Cleveland Center
07:51AM 42.7619 -76.8953 251° West 424 488 38,000  Level Cleveland Center
07:52AM 42.7250 -77.0444 251° West 424 488 38,000  Level Cleveland Center
07:53AM 42.6875 -77.1906 251° West 424 488 38,000  Level Cleveland Center
07:54AM 42.6503 -77.3394 251° West 424 488 38,000  Level Cleveland Center
07:55AM 42.6164 -77.4767 251° West 418 481 38,000  Level Cleveland Center
07:56AM 42.5828 -77.6250 253° West 423 487 38,000  Level Cleveland Center
07:57AM 42.5428 -77.7706 250° West 423 487 38,000  Level Cleveland Center
07:58AM 42.5025 -77.9244 251° West 429 494 38,000  Level Cleveland Center
07:59AM 42.4642 -78.0753 251° West 429 494 38,000  Level Cleveland Center
08:00AM 42.4278 -78.2203 251° West 429 494 38,000  Level Cleveland Center
08:01AM 42.3889 -78.3678 250° West 429 494 38,000  Level Cleveland Center
08:02AM 42.3500 -78.5181 251° West 429 494 38,000 -240 Level Cleveland Center
08:03AM 42.3131 -78.6656 251° West 429 494 37,600 -720 Descending Cleveland Center
08:04AM 42.2736 -78.8097 250° West 429 494 36,600 -840 Descending Cleveland Center
08:05AM 42.2300 -78.9736 250° West 429 494 36,000 -300 Descending Cleveland Center
08:06AM 42.2050 -79.1228 257° West 424 488 36,000  Level Cleveland Center
08:07AM 42.1861 -79.2717 260° West 417 480 36,000  Level Cleveland Center
08:08AM 42.1667 -79.4206 260° West 412 474 36,000  Level Cleveland Center
08:09AM 42.1494 -79.5722 261° West 412 474 36,000  Level Cleveland Center
08:10AM 42.1297 -79.7236 260° West 412 474 36,000  Level Cleveland Center
08:11AM 42.1078 -79.8722 259° West 412 474 36,000  Level Cleveland Center
08:12AM 42.0878 -80.0208 260° West 412 474 36,000  Level Cleveland Center
08:13AM 42.0697 -80.1692 261° West 407 468 36,000  Level Cleveland Center
08:14AM 42.0492 -80.3119 259° West 407 468 36,000  Level Cleveland Center
08:15AM 42.0308 -80.4631 261° West 413 475 36,000  Level Cleveland Center
08:16AM 42.0100 -80.6083 259° West 405 466 36,000  Level Cleveland Center
08:17AM 41.9889 -80.7564 259° West 410 472 36,000  Level Cleveland Center
08:18AM 41.9678 -80.8986 259° West 410 472 36,000  Level Cleveland Center
08:19AM 41.9486 -81.0325 259° West 410 472 36,000  Level Cleveland Center
08:20AM 41.9272 -81.1747 259° West 404 465 36,000  Level Cleveland Center
08:21AM 41.9075 -81.3225 260° West 404 465 36,000  Level Cleveland Center
08:22AM 41.8856 -81.4672 259° West 404 465 36,000  Level Cleveland Center
08:23AM 41.8656 -81.6147 260° West 409 471 36,000  Level Cleveland Center
08:24AM 41.8433 -81.7594 258° West 414 476 36,000  Level Cleveland Center
08:25AM 41.8231 -81.9039 259° West 403 464 36,000  Level Cleveland Center
08:26AM 41.8006 -82.0483 258° West 403 464 36,000  Level Cleveland Center
08:27AM 41.7756 -82.1897 257° West 403 464 36,000  Level Cleveland Center
08:28AM 41.7547 -82.3339 259° West 397 457 36,000  Level Cleveland Center
08:29AM 41.7317 -82.4753 258° West 391 450 36,000  Level Cleveland Center
08:30AM 41.7106 -82.6164 259° West 391 450 36,000  Level Cleveland Center
08:31AM 41.6869 -82.7575 257° West 396 456 36,000  Level Cleveland Center
08:32AM 41.6656 -82.9014 259° West 396 456 36,000  Level Cleveland Center
08:33AM 41.6394 -83.0478 257° West 396 456 36,000  Level Cleveland Center
08:34AM 41.6219 -83.1803 260° West 396 456 36,000  Level Cleveland Center
08:35AM 41.5933 -83.3347 256° West 396 456 36,000  Level Cleveland Center
08:36AM 41.5711 -83.4753 258° West 396 456 36,000  Level Cleveland Center
08:37AM 41.5467 -83.6158 257° West 391 450 36,000  Level Cleveland Center
08:38AM 41.5242 -83.7561 258° West 391 450 36,000  Level Cleveland Center
08:39AM 41.5014 -83.8964 258° West 391 450 36,000  Level Cleveland Center
08:40AM 41.4619 -84.0275 248° West 391 450 36,000  Level Cleveland Center
08:41AM 41.3922 -84.1289 228° Southwest 381 438 36,000  Level Cleveland Center
08:42AM 41.3622 -84.2131 245° Southwest 379 436 36,000 -300 Level Chicago Center
08:43AM 41.3747 -84.3533 277° West 384 442 35,500 -1,620 Descending Chicago Center
08:44AM 41.3892 -84.4947 278° West 386 444 32,800 -2,340 Descending Chicago Center
08:45AM 41.4028 -84.6364 277° West 386 444 30,800 -1,380 Descending Chicago Center
08:46AM 41.4147 -84.7711 277° West 371 427 30,000 -480 Descending Chicago Center
08:47AM 41.4300 -84.9389 277° West 379 436 29,900 -540 Descending Chicago Center
08:48AM 41.4442 -85.0908 277° West 407 468 29,000 -1,140 Descending Chicago Center
08:49AM 41.4578 -85.2456 277° West 416 479 27,700 -1,920 Descending Chicago Center
08:50AM 41.4697 -85.3950 276° West 404 465 25,200 -2,100 Descending Chicago Center
08:51AM 41.4831 -85.5411 277° West 386 444 23,500 -1,080 Descending Chicago Center
08:52AM 41.4917 -85.6800 275° West 373 429 23,000 -960 Descending Chicago Center
08:53AM 41.4981 -85.8169 274° West 370 426 21,600 -1,920 Descending Chicago Center
08:54AM 41.5031 -85.9514 273° West 362 417 19,200 -2,460 Descending Chicago Center
08:55AM 41.5106 -86.0881 274° West 367 422 16,600 -2,520 Descending Chicago Center
08:56AM 41.5150 -86.2194 273° West 356 410 14,100 -2,340 Descending Chicago Center
08:57AM 41.5200 -86.3475 273° West 347 399 11,900 -1,620 Descending Chicago Center
08:58AM 41.5217 -86.4717 271° West 339 390 10,900 -900 Descending Chicago Center
08:59AM 41.5211 -86.5944 270° West 333 383 10,100 -420 Descending Chicago Center
09:00AM 41.5200 -86.7264 269° West 332 382 10,100  Level Chicago Center
09:01AM 41.5183 -86.8461 269° West 327 376 10,100 -600 Level Chicago Center
09:02AM 41.5183 -86.9503 270° West 287 330 8,900 -1,320 Descending Chicago Center
09:03AM 41.5292 -87.0689 277° West 275 316 7,400 -1,260 Descending Chicago Center
09:04AM 41.5508 -87.1650 287° West 275 316 6,400 -540 Descending Chicago Center
09:05AM 41.5678 -87.2519 285° West 248 285 6,300 -240 Descending Chicago Center
09:06AM 41.5806 -87.3214 284° West 201 231 6,000 -600 Descending Chicago Center
09:07AM 41.5939 -87.3822 286° West 178 205 5,100 -540 Descending Chicago Center
09:08AM 41.6081 -87.4436 287° West 175 201 5,000 -60 Descending Chicago Center
09:09AM 41.6228 -87.5081 287° West 180 207 5,000 -360 Level Chicago Center
09:10AM 41.6578 -87.5744 305° West 187 215 4,300 -840 Descending Chicago Center
09:11AM 41.6936 -87.6247 314° West 188 216 3,300 -1,080 Descending Chicago Center
09:12AM 41.7297 -87.6753 314° West 188 216 2,200 -720 Descending Chicago Center
09:13AM 41.7761 -87.6869 349° North 196 226 1,900 -300 Descending Chicago Center
09:14AM 41.8200 -87.6814 North 182 209 1,700 -420 Descending Chicago Center
09:15AM 41.8103 -87.7217 252° West 150 173 1,100 -360 Descending Chicago Center
09:16AM 41.7858 -87.7503 221° Southwest 144 166 1,000 -120 Descending Chicago Center